Time;durP1;ratioP1;P1;durP2;ratioP2;P2;SDS_P1;SDS_P2;PMS_P1;PMS_P2;Temp;Humidity;BMP_temperature;BMP_pressure;BME280_temperature;BME280_humidity;BME280_pressure;Samples;Min_cycle;Max_cycle;Signal;HPM_P1;HPM_P2
2022/11/05 00:09:39;;;;;;;1999.90;999.90;;;9.50;99.90;;;8.11;100.00;100556.41;5069944;22;20063;-83
2022/11/05 00:17:43;;;;;;;1999.90;999.90;;;9.40;99.90;;;8.12;100.00;100568.59;5054487;28;20040;-83
2022/11/05 00:20:12;;;;;;;1999.90;999.90;;;9.40;99.90;;;8.15;100.00;100576.34;5054516;28;20033;-83
2022/11/05 00:25:26;;;;;;;1999.90;999.90;;;9.40;99.90;;;8.11;100.00;100580.00;5055121;28;20043;-83
2022/11/05 00:27:53;;;;;;;1999.90;999.90;;;9.40;99.90;;;8.09;100.00;100587.09;5062737;28;20374;-83
2022/11/05 00:30:25;;;;;;;1999.90;999.90;;;9.40;99.90;;;8.08;100.00;100594.09;5054149;28;20523;-84
2022/11/05 00:32:52;;;;;;;1999.90;999.90;;;9.40;99.90;;;8.07;100.00;100596.78;5035586;28;20029;-83
2022/11/05 00:35:21;;;;;;;1999.90;999.90;;;9.40;99.90;;;8.05;100.00;100598.59;5058312;28;20088;-83
2022/11/05 00:37:53;;;;;;;1999.90;999.90;;;9.30;99.90;;;7.97;100.00;100602.38;5057027;28;20059;-83
2022/11/05 00:40:19;;;;;;;1999.90;999.90;;;9.30;99.90;;;7.96;100.00;100598.03;5043247;28;20041;-83
2022/11/05 00:45:36;;;;;;;1999.90;999.90;;;9.20;99.90;;;7.89;100.00;100600.97;5059194;28;20094;-82
2022/11/05 00:50:46;;;;;;;1999.90;999.90;;;9.20;99.90;;;7.79;100.00;100597.81;5060230;28;20054;-83
2022/11/05 00:53:12;;;;;;;1999.90;999.90;;;9.10;99.90;;;7.77;100.00;100600.47;5054025;28;20021;-82
2022/11/05 00:55:44;;;;;;;1999.90;999.90;;;9.00;99.90;;;7.68;100.00;100602.59;5041374;28;20032;-83
2022/11/05 00:58:21;;;;;;;1999.90;999.90;;;9.00;99.90;;;7.65;100.00;100606.19;5054918;28;20029;-83
2022/11/05 01:00:53;;;;;;;1999.90;999.90;;;9.00;99.90;;;7.59;100.00;100602.03;5040144;28;20081;-83
2022/11/05 01:03:23;;;;;;;1999.90;999.90;;;8.90;99.90;;;7.53;100.00;100609.25;5039650;28;20041;-83
2022/11/05 01:05:54;;;;;;;1999.90;999.90;;;8.80;99.90;;;7.47;100.00;100612.09;5068662;28;20037;-83
2022/11/05 01:08:22;;;;;;;1999.90;999.90;;;8.80;99.90;;;7.45;100.00;100608.66;5040922;28;20366;-82
2022/11/05 01:11:34;;;;;;;1999.90;999.90;;;8.80;99.90;;;7.43;100.00;100611.34;5038486;28;20070;-84
2022/11/05 01:14:00;;;;;;;1999.90;999.90;;;8.70;99.90;;;7.35;100.00;100610.75;5065674;28;20025;-83
2022/11/05 01:16:26;;;;;;;1999.90;999.90;;;8.70;99.90;;;7.33;100.00;100620.44;5070045;28;20031;-82
2022/11/05 01:19:00;;;;;;;1999.90;999.90;;;8.70;99.90;;;7.30;100.00;100620.53;5055082;28;20116;-82
2022/11/05 01:21:27;;;;;;;1999.90;999.90;;;8.70;99.90;;;7.28;100.00;100627.56;5054291;28;20369;-83
2022/11/05 01:23:53;;;;;;;1999.90;999.90;;;8.60;99.90;;;7.23;100.00;100629.50;5037393;28;20037;-82
2022/11/05 01:26:21;;;;;;;1999.90;999.90;;;8.60;99.90;;;7.21;100.00;100637.41;5056067;28;20048;-84
2022/11/05 01:28:52;;;;;;;1999.90;999.90;;;8.60;99.90;;;7.18;100.00;100634.91;5054868;28;20052;-82
2022/11/05 01:31:18;;;;;;;1999.90;999.90;;;8.50;99.90;;;7.16;100.00;100631.47;5038206;28;20024;-83
2022/11/05 01:33:43;;;;;;;1999.90;999.90;;;8.50;99.90;;;7.11;100.00;100623.78;5039808;28;20055;-83
2022/11/05 01:36:09;;;;;;;1999.90;999.90;;;8.50;99.90;;;7.08;100.00;100634.34;5037936;28;20033;-82
2022/11/05 01:38:43;;;;;;;1999.90;999.90;;;8.40;99.90;;;7.03;100.00;100631.03;5073669;28;20033;-83
2022/11/05 01:41:09;;;;;;;1999.90;999.90;;;8.40;99.90;;;6.97;100.00;100633.84;5039613;28;20037;-82
2022/11/05 01:43:51;;;;;;;1999.90;999.90;;;8.40;99.90;;;6.94;100.00;100631.34;5054250;28;20112;-83
2022/11/05 01:46:25;;;;;;;1999.90;999.90;;;8.30;99.90;;;6.90;100.00;100629.75;5064696;28;20452;-83
2022/11/05 01:48:53;;;;;;;1999.90;999.90;;;8.30;99.90;;;6.86;100.00;100635.97;5032352;28;20679;-82
2022/11/05 01:51:29;;;;;;;1999.90;999.90;;;8.20;99.90;;;6.78;100.00;100621.41;5053279;28;20024;-83
2022/11/05 01:54:08;;;;;;;1999.90;999.90;;;8.20;99.90;;;6.74;100.00;100630.25;5038982;28;20056;-83
2022/11/05 01:56:41;;;;;;;1999.90;999.90;;;8.20;99.90;;;6.67;100.00;100626.09;5054548;28;20036;-82
2022/11/05 01:59:44;;;;;;;1999.90;999.90;;;8.10;99.90;;;6.69;100.00;100628.66;5057103;28;20059;-83
2022/11/05 02:02:10;;;;;;;1999.90;999.90;;;8.10;99.90;;;6.67;100.00;100630.47;5054865;28;20119;-83
2022/11/05 02:04:58;;;;;;;1999.90;999.90;;;8.10;99.90;;;6.63;100.00;100632.34;5039398;28;20040;-83
2022/11/05 02:07:28;;;;;;;1999.90;999.90;;;8.00;99.90;;;6.61;100.00;100626.31;5054401;28;20033;-83
2022/11/05 02:10:08;;;;;;;1999.90;999.90;;;8.00;99.90;;;6.61;100.00;100631.53;5037932;28;20043;-83
2022/11/05 02:12:38;;;;;;;1999.90;999.90;;;8.00;99.90;;;6.63;100.00;100626.25;5051986;28;20063;-82
2022/11/05 02:15:06;;;;;;;1999.90;999.90;;;8.00;99.90;;;6.64;100.00;100636.66;5037067;28;20044;-83
2022/11/05 02:18:13;;;;;;;1031.68;516.20;;;8.00;99.90;;;6.67;100.00;100640.94;5055790;28;20024;-83
2022/11/05 02:20:56;;;;;;;1999.90;999.90;;;8.00;99.90;;;6.69;100.00;100633.91;5041240;28;20110;-83
2022/11/05 02:23:44;;;;;;;1138.47;557.00;;;8.10;99.90;;;6.71;100.00;100635.56;5062663;28;20271;-82
2022/11/05 02:26:46;;;;;;;1031.32;516.22;;;8.10;99.90;;;6.73;100.00;100641.59;5053526;28;20111;-83
2022/11/05 02:29:54;;;;;;;1999.90;999.90;;;8.10;99.90;;;6.72;100.00;100645.13;5039616;28;20040;-82
2022/11/05 02:33:02;;;;;;;1999.90;999.90;;;8.10;99.90;;;6.73;100.00;100645.97;5004243;28;20330;-83
2022/11/05 02:35:49;;;;;;;1999.90;999.90;;;8.10;99.90;;;6.72;100.00;100642.53;5054681;28;20040;-83
2022/11/05 02:38:39;;;;;;;1999.90;999.90;;;8.10;99.90;;;6.75;100.00;100649.41;5039286;28;20028;-83
2022/11/05 02:41:13;;;;;;;1999.90;999.90;;;8.10;99.90;;;6.74;100.00;100653.78;5065319;28;20036;-83
2022/11/05 02:44:02;;;;;;;1999.90;999.90;;;8.10;99.90;;;6.74;100.00;100658.19;5052867;28;20036;-83
2022/11/05 02:46:43;;;;;;;1999.90;999.90;;;8.10;99.90;;;6.74;100.00;100653.78;5052384;28;20124;-82
2022/11/05 02:49:25;;;;;;;1999.90;999.90;;;8.10;99.90;;;6.73;100.00;100652.06;5053463;28;20032;-84
2022/11/05 02:52:18;;;;;;;1999.90;999.90;;;8.10;99.90;;;6.72;100.00;100658.22;5034114;28;20036;-82
2022/11/05 02:55:02;;;;;;;1999.90;999.90;;;8.10;99.90;;;6.71;100.00;100660.88;5030970;28;20078;-83
2022/11/05 02:57:29;;;;;;;1999.90;999.90;;;8.10;99.90;;;6.70;100.00;100661.78;5053012;28;20060;-83
2022/11/05 03:00:45;;;;;;;1999.90;999.90;;;8.10;99.90;;;6.71;100.00;100664.34;5036970;28;20036;-82
2022/11/05 03:03:22;;;;;;;1999.90;999.90;;;8.10;99.90;;;6.70;100.00;100667.03;5052919;28;20086;-83
2022/11/05 03:06:27;;;;;;;1999.90;999.90;;;8.10;99.90;;;6.68;100.00;100679.31;5053039;28;20024;-84
2022/11/05 03:09:01;;;;;;;1999.90;999.90;;;8.10;99.90;;;6.68;100.00;100676.69;5062882;28;20033;-84
2022/11/05 03:11:49;;;;;;;1999.90;999.90;;;8.10;99.90;;;6.67;100.00;100682.81;5049395;28;20036;-83
2022/11/05 03:14:56;;;;;;;1999.90;999.90;;;8.10;99.90;;;6.65;100.00;100680.25;5036861;28;20025;-83
2022/11/05 03:17:53;;;;;;;151.48;63.13;;;8.00;99.90;;;6.65;100.00;100675.03;5008497;28;20032;-83
2022/11/05 03:20:50;;;;;;;361.70;118.53;;;8.00;99.90;;;6.64;100.00;100675.91;5047191;28;20108;-83
2022/11/05 03:23:37;;;;;;;83.93;13.48;;;8.00;99.90;;;6.67;100.00;100678.41;5048315;28;20045;-83
2022/11/05 03:26:34;;;;;;;37.42;9.50;;;8.00;99.90;;;6.66;100.00;100676.72;5069134;28;20032;-82
2022/11/05 03:29:23;;;;;;;;;;;8.00;99.90;;;6.60;100.00;100687.38;5037736;28;20020;-83
2022/11/05 03:31:52;;;;;;;40.00;9.60;;;8.00;99.90;;;6.59;100.00;100690.91;5045464;28;19963;-83
2022/11/05 03:34:28;;;;;;;40.40;10.20;;;8.00;99.90;;;6.60;100.00;100692.59;5052624;28;20116;-83
2022/11/05 03:36:56;;;;;;;37.60;10.38;;;8.00;99.90;;;6.62;100.00;100696.03;5050306;28;20033;-82
2022/11/05 03:39:30;;;;;;;49.13;11.05;;;8.00;99.90;;;6.65;100.00;100688.09;5053279;28;20497;-83
2022/11/05 03:41:57;;;;;;;48.58;11.82;;;8.00;99.90;;;6.62;100.00;100696.03;5050732;28;20055;-83
2022/11/05 03:44:33;;;;;;;39.65;10.77;;;8.00;99.90;;;6.62;100.00;100700.41;5034983;28;20128;-82
2022/11/05 03:47:16;;;;;;;55.78;12.70;;;8.00;99.90;;;6.65;100.00;100706.44;5052307;28;20021;-83
2022/11/05 03:50:31;;;;;;;45.40;11.27;;;8.00;99.90;;;6.66;100.00;100721.22;5027760;28;20037;-82
2022/11/05 03:53:14;;;;;;;56.72;11.77;;;8.00;99.90;;;6.65;100.00;100721.25;5062911;28;20048;-83
2022/11/05 03:56:04;;;;;;;24.15;8.23;;;8.00;99.90;;;6.62;100.00;100727.44;5052478;28;20412;-83
2022/11/05 03:58:30;;;;;;;31.58;8.00;;;8.00;99.90;;;6.56;100.00;100718.00;5052699;28;20094;-82
2022/11/05 04:01:03;;;;;;;36.60;8.57;;;8.00;99.90;;;6.56;100.00;100730.22;5053081;28;20028;-83
2022/11/05 04:03:34;;;;;;;45.80;11.45;;;7.90;99.90;;;6.52;100.00;100728.59;5048318;28;20029;-83
2022/11/05 04:14:19;;;;;;;42.25;11.43;;;7.90;99.90;;;6.50;100.00;100728.66;5059938;28;20044;-82
2022/11/05 04:17:05;;;;;;;46.47;10.98;;;7.90;99.90;;;6.53;100.00;100738.19;5039723;28;20033;-82
2022/11/05 04:25:05;;;;;;;18.83;4.80;;;7.80;99.90;;;6.46;100.00;100734.03;5058010;28;20106;-83
2022/11/05 04:27:31;;;;;;;19.80;4.95;;;7.80;99.90;;;6.45;100.00;100746.25;5055820;28;20054;-83
2022/11/05 04:32:41;;;;;;;16.00;4.63;;;7.80;99.90;;;6.42;100.00;100746.34;5057916;28;20058;-83
2022/11/05 04:35:13;;;;;;;18.70;5.22;;;7.80;99.90;;;6.42;100.00;100748.97;5038665;28;20507;-82
2022/11/05 04:37:39;;;;;;;24.95;5.82;;;7.80;99.90;;;6.42;100.00;100755.97;5057115;28;20024;-83
2022/11/05 04:40:05;;;;;;;26.75;6.82;;;7.80;99.90;;;6.40;100.00;100749.91;5038853;28;20064;-82
2022/11/05 04:42:31;;;;;;;30.13;6.32;;;7.80;99.90;;;6.38;100.00;100739.47;5068582;28;20036;-82
2022/11/05 04:44:57;;;;;;;31.90;6.80;;;7.70;99.90;;;6.35;100.00;100745.66;5054400;28;20478;-83
2022/11/05 04:47:25;;;;;;;29.55;6.80;;;7.70;99.90;;;6.32;100.00;100743.13;5044461;28;20025;-83
2022/11/05 04:49:53;;;;;;;30.55;6.13;;;7.60;99.90;;;6.28;100.00;100743.25;5039901;28;20025;-82
2022/11/05 04:52:19;;;;;;;23.90;6.05;;;7.60;99.90;;;6.21;100.00;100755.66;5054900;28;20040;-84
2022/11/05 04:54:44;;;;;;;20.27;6.28;;;7.60;99.90;;;6.17;100.00;100751.41;5055442;28;20111;-81
2022/11/05 04:57:10;;;;;;;30.15;6.18;;;7.50;99.90;;;6.14;100.00;100752.34;5038362;28;20111;-83
2022/11/05 05:00:04;;;;;;;25.00;6.30;;;7.50;99.90;;;6.08;100.00;100749.06;5053698;23;20049;-85
2022/11/05 05:02:44;;;;;;;22.83;5.80;;;;;;;6.02;100.00;100751.81;5023597;28;20706;-87
2022/11/05 05:05:23;;;;;;;26.13;5.63;;;;;;;5.95;100.00;100752.00;5020990;28;20531;-85
2022/11/05 05:08:05;;;;;;;21.58;5.20;;;7.30;99.90;;;5.89;100.00;100749.50;5039617;28;20246;-85
2022/11/05 05:10:34;;;;;;;15.45;4.97;;;7.20;99.90;;;5.84;100.00;100751.41;5025264;28;20033;-86
2022/11/05 05:13:12;;;;;;;22.58;4.93;;;7.20;99.90;;;5.80;100.00;100761.97;5048039;28;20029;-85
2022/11/05 05:21:37;;;;;;;16.58;4.82;;;7.10;99.90;;;5.68;100.00;100771.84;5036457;28;20039;-84
2022/11/05 05:22:42;;;;;;;19.80;4.22;;;7.00;99.90;;;5.60;100.00;100760.72;5046693;28;20045;-86
2022/11/05 05:25:23;;;;;;;20.20;4.78;;;;;;;5.58;100.00;100769.50;5012228;28;20025;-85
2022/11/05 05:31:44;;;;;;;;;;;;;;;;;;;;;
2022/11/05 05:34:14;;;;;;;18.73;4.47;;;;;;;5.49;100.00;100774.06;4986129;28;20690;-85
2022/11/05 05:36:55;;;;;;;22.85;5.28;;;;;;;5.50;100.00;100780.13;5024708;28;20041;-85
2022/11/05 05:47:34;;;;;;;23.85;4.30;;;6.90;99.90;;;5.40;100.00;100800.41;5012297;28;20560;-85
2022/11/05 05:50:12;;;;;;;20.95;3.78;;;;;;;5.39;100.00;100803.06;4995604;28;20470;-85
2022/11/05 05:52:52;;;;;;;28.15;4.55;;;;;;;5.37;100.00;100808.31;5022103;28;20394;-85
2022/11/05 05:55:22;;;;;;;26.52;4.05;;;;;;;5.35;100.00;100817.91;5003633;28;20033;-85
2022/11/05 05:59:01;;;;;;;21.77;4.32;;;;;;;5.33;100.00;100817.09;5023972;28;20033;-85
2022/11/05 06:04:53;;;;;;;18.00;3.80;;;6.70;99.90;;;5.26;100.00;100828.59;5005020;28;20049;-84
2022/11/05 06:11:22;;;;;;;27.23;4.85;;;;;;;5.14;100.00;100827.97;4986910;28;20050;-84
2022/11/05 06:14:12;;;;;;;22.88;4.57;;;6.60;99.90;;;5.07;100.00;100817.69;4976473;28;20132;-87
2022/11/05 06:16:53;;;;;;;23.83;4.18;;;6.60;99.90;;;5.07;100.00;100825.53;4969223;28;20061;-87
2022/11/05 06:19:22;;;;;;;21.75;3.90;;;6.50;99.90;;;5.05;100.00;100822.94;4985472;28;20045;-84
2022/11/05 06:22:17;;;;;;;22.85;4.30;;;;;;;5.08;100.00;100822.03;5007086;28;20041;-87
2022/11/05 06:27:54;;;;;;;27.70;4.90;;;6.50;99.90;;;5.11;100.00;100850.69;4986078;28;20052;-86
2022/11/05 06:30:33;;;;;;;22.77;4.35;;;;;;;5.11;100.00;100848.06;4999572;28;20402;-84
2022/11/05 06:33:21;;;;;;;23.25;4.30;;;;;;;5.12;100.00;100847.19;5020836;28;20029;-84
2022/11/05 06:36:04;;;;;;;40.00;4.85;;;6.50;99.90;;;5.14;100.00;100853.22;5027261;28;20037;-86
2022/11/05 06:39:34;;;;;;;26.80;5.15;;;6.50;99.90;;;5.18;100.00;100864.44;4986070;28;20449;-87
2022/11/05 06:42:11;;;;;;;25.92;4.65;;;6.50;99.90;;;5.13;100.00;100849.75;5008586;28;20565;-84
2022/11/05 06:44:37;;;;;;;20.40;4.40;;;6.50;99.90;;;5.18;100.00;100848.78;4990829;28;20064;-86
2022/11/05 06:47:15;;;;;;;1999.90;999.90;;;;;;;5.24;100.00;100865.16;5003214;28;20505;-86
2022/11/05 06:49:46;;;;;;;1999.90;999.90;;;;;;;5.25;100.00;100864.28;5021147;28;20823;-87
2022/11/05 06:52:33;;;;;;;1999.90;999.90;;;6.60;99.90;;;5.27;100.00;100864.22;5015688;28;20025;-86
2022/11/05 06:55:02;;;;;;;1999.90;999.90;;;;;;;5.29;100.00;100867.66;4993809;28;20414;-87
2022/11/05 07:01:13;;;;;;;1999.90;999.90;;;6.60;99.90;;;5.33;100.00;100875.44;4989159;28;20099;-85
2022/11/05 07:06:45;;;;;;;1999.90;999.90;;;;;;;6.22;100.00;100885.50;5012697;28;20036;-87
2022/11/05 07:09:11;;;;;;;1999.90;999.90;;;;;;;6.03;100.00;100895.56;5010779;28;20034;-87
2022/11/05 07:15:53;;;;;;;1999.90;999.90;;;7.00;99.90;;;5.90;100.00;100891.50;5020179;28;20573;-86
2022/11/05 07:19:03;;;;;;;1999.90;999.90;;;7.00;99.90;;;5.92;100.00;100890.56;4995664;28;20030;-87
2022/11/05 07:29:12;;;;;;;;;;;10.30;99.90;;;12.55;88.50;100919.81;4828397;29;20114;-84
2022/11/05 07:35:22;;;;;;;1999.90;999.90;;;10.50;99.90;;;9.28;91.22;100924.72;4820734;29;20038;-85
2022/11/05 07:38:43;;;;;;;1999.90;999.90;;;10.00;99.90;;;8.50;95.27;100921.38;4831699;29;20034;-85
2022/11/05 07:41:14;;;;;;;1999.90;999.90;;;9.60;99.90;;;8.08;97.78;100921.91;4834642;29;20703;-85
2022/11/05 07:44:04;;;;;;;1999.90;999.90;;;9.20;99.90;;;7.78;100.00;100929.88;4865993;29;20534;-87
2022/11/05 07:46:33;;;;;;;1999.90;999.90;;;8.90;99.90;;;7.51;100.00;100923.72;4969521;28;20658;-88
2022/11/05 07:50:01;;;;;;;1999.90;999.90;;;8.80;99.90;;;7.35;100.00;100931.19;5007005;28;20080;-86
2022/11/05 07:59:51;;;;;;;1999.90;999.90;;;8.30;99.90;;;7.13;100.00;100936.22;5037737;23;20389;-87
2022/11/05 08:02:16;;;;;;;1999.90;999.90;;;8.30;99.90;;;7.12;100.00;100941.47;5037255;28;20021;-87
2022/11/05 08:04:55;;;;;;;1999.90;999.90;;;;;;;7.09;100.00;100941.59;5036859;28;20035;-87
2022/11/05 08:07:22;;;;;;;1999.90;999.90;;;;;;;7.11;100.00;100935.41;5060033;28;20031;-86
2022/11/05 08:10:32;;;;;;;1999.90;999.90;;;8.30;99.90;;;7.11;100.00;100948.47;5053842;28;20032;-87
2022/11/05 08:16:15;;;;;;;;;;;;;;;;;;;;;
2022/11/05 08:18:44;;;;;;;1999.90;999.90;;;8.30;99.90;;;7.13;100.00;100954.53;5070139;28;20037;-87
2022/11/05 08:21:13;;;;;;;1999.90;999.90;;;;;;;7.17;100.00;100950.03;5035663;28;20055;-87
2022/11/05 08:23:53;;;;;;;1999.90;999.90;;;;;;;7.22;100.00;100947.31;5055298;28;20068;-85
2022/11/05 08:29:43;;;;;;;1999.90;999.90;;;;;;;7.29;100.00;100959.31;5019073;28;20092;-87
2022/11/05 08:32:25;;;;;;;1999.90;999.90;;;8.50;99.90;;;7.34;100.00;100967.91;5054293;28;20416;-87
2022/11/05 08:35:04;;;;;;;1999.90;999.90;;;8.50;99.90;;;7.40;100.00;100967.72;5035713;28;20384;-85
2022/11/05 08:37:42;;;;;;;1999.90;999.90;;;;;;;7.46;100.00;100972.78;5038625;28;20033;-85
2022/11/05 08:40:23;;;;;;;1999.90;999.90;;;;;;;7.52;100.00;100971.75;5055620;28;20451;-85
2022/11/05 08:43:04;;;;;;;1999.90;999.90;;;8.70;99.90;;;7.55;100.00;100972.50;5054879;28;20513;-85
2022/11/05 08:45:42;;;;;;;1999.90;999.90;;;;;;;7.60;100.00;100970.63;5037727;28;20055;-85
2022/11/05 08:49:11;;;;;;;1999.90;999.90;;;8.80;99.90;;;7.69;100.00;100968.59;5052928;28;20039;-88
2022/11/05 08:52:52;;;;;;;1999.90;999.90;;;8.80;99.90;;;7.74;100.00;100980.66;4963708;28;20486;-88
2022/11/05 08:55:34;;;;;;;1999.90;999.90;;;;;;;7.79;100.00;100977.91;4917989;29;20051;-85
2022/11/05 08:58:15;;;;;;;1999.90;999.90;;;;;;;7.84;100.00;100968.16;4976208;28;20054;-85
2022/11/05 09:00:52;;;;;;;1999.90;999.90;;;;;;;7.90;100.00;100965.31;4992722;28;20134;-87
2022/11/05 09:03:22;;;;;;;1999.90;999.90;;;;;;;7.98;100.00;100976.41;5032490;28;20044;-85
2022/11/05 09:06:14;;;;;;;1999.90;999.90;;;9.20;99.90;;;8.05;100.00;100970.97;5056945;28;20032;-85
2022/11/05 09:09:44;;;;;;;1999.90;999.90;;;9.30;99.90;;;8.20;100.00;100976.56;5038150;28;20021;-86
2022/11/05 09:12:53;;;;;;;1999.90;999.90;;;;;;;8.36;100.00;100976.94;5055183;28;20032;-85
2022/11/05 09:19:03;;;;;;;1999.90;999.90;;;;;;;8.70;100.00;100981.06;5051428;28;20048;-86
2022/11/05 09:22:14;;;;;;;1999.90;999.90;;;10.00;99.90;;;8.92;100.00;100991.69;5047500;28;20126;-87
2022/11/05 09:27:53;;;;;;;1999.90;999.90;;;;;;;9.22;100.00;100994.09;5017221;28;20077;-86
2022/11/05 09:30:56;;;;;;;;;;;;;;;;;;;;;
2022/11/05 09:34:13;;;;;;;1999.90;999.90;;;11.10;99.90;;;9.54;100.00;100994.69;5002959;28;20041;-85
2022/11/05 09:40:19;;;;;;;;;;;;;;;;;;;;;
2022/11/05 09:43:03;;;;;;;1999.90;999.90;;;;;;;9.77;100.00;101006.97;5014049;28;20046;-85
2022/11/05 09:50:42;;;;;;;1999.90;999.90;;;11.20;99.90;;;9.88;100.00;101009.16;5000933;28;20049;-86
2022/11/05 09:53:54;;;;;;;;;;;;;;;;;;;;;
2022/11/05 09:56:48;;;;;;;;;;;;;;;;;;;;;
2022/11/05 10:03:46;;;;;;;;;;;;;;;;;;;;;
2022/11/05 10:07:04;;;;;;;1999.90;999.90;;;;;;;10.13;100.00;101037.97;4885605;29;20041;-85
2022/11/05 10:10:12;;;;;;;1999.90;999.90;;;;;;;10.19;100.00;101040.38;5029629;28;20559;-86
2022/11/05 10:13:26;;;;;;;1.13;1.10;;;;;;;10.17;100.00;101048.34;4999002;28;20037;-85
2022/11/05 10:16:24;;;;;;;0.00;0.00;;;;;;;10.15;100.00;101041.41;4948368;28;20035;-86
2022/11/05 10:19:51;;;;;;;1515.75;757.97;;;11.30;99.90;;;10.16;100.00;101045.78;5011841;28;20080;-86
2022/11/05 10:25:45;;;;;;;0.10;0.10;;;;;;;10.27;100.00;101057.56;4982343;28;20041;-84
2022/11/05 10:31:32;;;;;;;122.35;57.08;;;11.40;99.90;;;10.24;100.00;101051.59;4960135;28;20110;-84
2022/11/05 10:34:44;;;;;;;60.67;16.30;;;11.40;99.90;;;10.24;100.00;101062.97;4960503;28;20031;-84
2022/11/05 10:41:06;;;;;;;0.88;0.88;;;11.40;99.90;;;10.23;99.87;101058.59;4998387;28;20120;-82
2022/11/05 10:44:17;;;;;;;12.52;9.48;;;11.40;99.90;;;10.25;100.00;101059.41;5039928;28;20083;-82
2022/11/05 10:47:32;;;;;;;1999.90;999.90;;;;;;;10.33;100.00;101072.31;5025313;28;20586;-84
2022/11/05 10:50:00;;;;;;;1999.90;999.90;;;11.50;99.90;;;10.38;100.00;101080.00;5073638;28;20031;-84
2022/11/05 10:53:06;;;;;;;1999.90;999.90;;;11.50;99.90;;;10.41;99.80;101080.75;5053918;28;20052;-83
2022/11/05 10:55:46;;;;;;;1999.90;999.90;;;11.50;99.90;;;10.43;98.79;101081.56;5053784;28;20037;-83
2022/11/05 10:58:15;;;;;;;1572.57;786.53;;;11.50;99.90;;;10.45;97.49;101092.88;5041620;28;20027;-83
2022/11/05 11:00:53;;;;;;;1999.90;999.90;;;11.60;99.90;;;10.51;97.46;101090.91;5056112;28;20037;-83
2022/11/05 11:03:46;;;;;;;1999.90;999.90;;;11.80;99.90;;;10.54;97.60;101085.50;5068303;22;20023;-82
2022/11/05 11:06:31;;;;;;;1042.78;507.30;;;11.60;99.90;;;10.58;97.67;101092.34;5042094;28;20086;-81
2022/11/05 11:09:17;;;;;;;1999.90;999.90;;;11.70;99.90;;;10.61;96.76;101089.63;5042949;28;20020;-82
2022/11/05 11:11:44;;;;;;;13.48;12.68;;;11.70;99.90;;;10.66;96.17;101095.53;5064951;28;20024;-82
2022/11/05 11:14:12;;;;;;;8.20;7.70;;;11.70;99.90;;;10.67;95.52;101092.00;5063637;28;20514;-81
2022/11/05 11:16:44;;;;;;;8.93;8.43;;;11.80;99.90;;;10.68;95.33;101091.06;5081783;28;20027;-82
2022/11/05 11:19:30;;;;;;;5.63;5.32;;;11.80;99.90;;;10.72;94.81;101097.94;5054941;28;20024;-82
2022/11/05 11:22:02;;;;;;;2.90;2.80;;;11.80;99.90;;;10.75;94.50;101103.06;5066505;28;20047;-81
2022/11/05 11:24:41;;;;;;;1.48;1.48;;;11.90;99.90;;;10.75;94.25;101097.78;5085205;28;20096;-83
2022/11/05 11:27:15;;;;;;;0.00;0.00;;;11.90;99.90;;;10.79;93.32;101102.00;5063945;28;20032;-82
2022/11/05 11:29:44;;;;;;;44.00;21.52;;;11.90;99.90;;;10.75;92.75;101099.56;5070691;28;20297;-82
2022/11/05 11:32:19;;;;;;;9.40;8.80;;;11.90;99.90;;;10.80;93.31;101100.25;5045581;28;20111;-83
2022/11/05 11:34:58;;;;;;;9.13;8.60;;;11.90;99.90;;;10.77;92.92;101105.63;5042624;28;20054;-80
2022/11/05 11:37:27;;;;;;;29.65;25.05;;;11.90;99.90;;;10.76;92.16;101091.63;5043464;28;20024;-81
2022/11/05 11:40:11;;;;;;;10.23;9.63;;;11.90;99.90;;;10.73;91.80;101104.03;5048911;28;20488;-81
2022/11/05 11:42:43;;;;;;;683.22;349.35;;;11.90;99.90;;;10.71;90.30;101096.19;5060794;28;20419;-83
2022/11/05 11:45:34;;;;;;;1999.90;999.90;;;;;;;10.76;90.91;101101.31;5045641;28;20043;-82
2022/11/05 11:48:04;;;;;;;297.08;120.88;;;11.90;99.90;;;10.72;90.19;101097.94;5057168;28;20036;-83
2022/11/05 11:50:32;;;;;;;1999.90;999.90;;;11.90;99.90;;;10.73;90.84;101107.53;5059046;28;20477;-82
2022/11/05 11:53:19;;;;;;;1999.90;999.90;;;11.90;99.90;;;10.69;89.70;101098.06;5077889;28;20032;-82
2022/11/05 11:55:54;;;;;;;1999.90;999.90;;;11.90;99.90;;;10.76;89.65;101109.22;5059109;28;20446;-82
2022/11/05 11:58:37;;;;;;;1999.90;999.90;;;11.90;99.90;;;10.80;90.03;101103.75;5065285;28;20455;-83
2022/11/05 12:01:43;;;;;;;1999.90;999.90;;;12.00;99.90;;;10.83;90.37;101108.03;5065010;28;20024;-83
2022/11/05 12:04:59;;;;;;;1.10;1.10;;;12.00;99.90;;;10.83;89.20;101106.25;5066985;28;20106;-82
2022/11/05 12:07:51;;;;;;;1999.90;999.90;;;12.00;99.90;;;10.85;89.00;101107.03;5023981;28;20032;-83
2022/11/05 12:10:35;;;;;;;9.18;1.30;;;12.00;99.90;;;10.85;88.22;101107.03;5064448;28;20032;-82
2022/11/05 12:13:36;;;;;;;12.02;1.50;;;12.00;99.90;;;10.92;87.77;101109.41;5075589;28;20020;-83
2022/11/05 12:16:39;;;;;;;8.55;1.40;;;12.00;99.90;;;10.92;87.70;101109.41;5067763;28;20016;-81
2022/11/05 12:19:30;;;;;;;9.75;1.20;;;12.10;99.90;;;10.96;87.86;101113.63;5082717;28;20097;-83
2022/11/05 12:22:42;;;;;;;8.40;1.20;;;12.10;99.90;;;10.92;86.08;101106.78;5052195;28;20028;-82
2022/11/05 12:25:25;;;;;;;6.15;1.23;;;12.10;99.90;;;10.98;87.25;101106.53;5085796;28;20122;-83
2022/11/05 12:28:19;;;;;;;10.63;1.30;;;12.10;99.90;;;10.97;86.81;101104.78;5080017;28;20056;-82
2022/11/05 12:31:01;;;;;;;9.80;1.30;;;;;;;11.06;86.93;101112.34;5091750;28;20688;-83
2022/11/05 12:33:45;;;;;;;6.05;1.02;;;12.10;99.90;;;11.08;86.28;101107.84;5086582;28;20040;-82
2022/11/05 12:36:21;;;;;;;11.95;1.30;;;12.20;99.90;;;11.12;87.19;101101.50;5087000;28;20514;-83
2022/11/05 12:39:22;;;;;;;12.07;1.77;;;12.20;99.90;;;11.15;86.83;101101.41;5069721;28;20028;-82
2022/11/05 12:42:30;;;;;;;9.63;1.50;;;12.20;99.90;;;11.17;83.85;101096.06;5089617;28;20032;-84
2022/11/05 12:45:10;;;;;;;;;;;12.20;99.90;;;11.17;83.57;101103.97;5076429;28;20024;-83
2022/11/05 12:47:42;;;;;;;6.35;1.08;;;12.30;99.90;;;11.20;83.90;101104.69;5070200;28;19908;-83
2022/11/05 12:50:16;;;;;;;8.55;1.10;;;12.30;99.90;;;11.26;83.84;101112.31;5084906;28;20419;-82
2022/11/05 12:53:21;;;;;;;5.05;1.05;;;12.40;99.90;;;11.33;84.07;101109.44;5066319;28;20106;-83
2022/11/05 12:55:51;;;;;;;8.15;1.35;;;12.40;99.90;;;11.37;83.15;101111.00;5047688;28;20086;-84
2022/11/05 12:58:34;;;;;;;14.98;2.30;;;12.50;99.90;;;11.43;82.50;101113.38;5071481;28;20400;-82
2022/11/05 13:01:13;;;;;;;1999.90;999.90;;;12.50;99.90;;;11.47;81.41;101125.50;5067456;28;20024;-83
2022/11/05 13:04:02;;;;;;;1999.90;999.90;;;12.50;99.90;;;11.49;81.29;101113.13;5066085;28;20033;-84
2022/11/05 13:06:46;;;;;;;1999.90;999.90;;;12.60;99.90;;;11.53;80.44;101106.75;5050455;28;20029;-84
2022/11/05 13:09:40;;;;;;;1999.90;999.90;;;12.60;99.90;;;11.55;80.48;101120.72;5073244;28;20039;-83
2022/11/05 13:12:13;;;;;;;1999.90;999.90;;;12.70;99.90;;;11.58;79.99;101119.75;5072843;28;20030;-82
2022/11/05 13:14:56;;;;;;;1999.90;999.90;;;12.70;99.90;;;11.60;80.45;101124.03;5045205;28;20058;-83
2022/11/05 13:17:45;;;;;;;1999.90;999.90;;;12.70;99.90;;;11.57;80.10;101129.44;5050347;28;20103;-83
2022/11/05 13:20:41;;;;;;;227.50;207.05;;;12.70;99.90;;;11.56;79.97;101134.78;5070022;28;20093;-83
2022/11/05 13:23:35;;;;;;;20.52;16.42;;;12.60;99.90;;;11.54;79.48;101129.56;5046582;28;20503;-83
2022/11/05 13:26:29;;;;;;;18.23;16.90;;;12.70;99.90;;;11.56;79.71;101129.53;5066920;28;20125;-84
2022/11/05 13:29:15;;;;;;;5.35;5.00;;;12.60;99.90;;;11.55;81.45;101122.50;5059863;28;20059;-83
2022/11/05 13:31:48;;;;;;;6.22;5.82;;;12.60;99.90;;;11.50;81.67;101133.28;5068724;28;20027;-83